Pagrindinis puslapis
METAR-TAF:

METAR-TAF

Oro uostai :

Pilzenas, Čekija

platuma: 49-40-31N, ilguma: 13-16-29E, Aukštis: 362 m

Dabartinis oras

Ataskaita buvo paskelbta 36 minutes, ne 23:00 UTC
Ramus vėjas
Temperatūra 3°C
Drėgmė 75%
Slėgis 1017 hPa
Matomumas 10 km arba daugiau
nėra debesų žemiau 1500 m ir nėra kamuolinių lietaus debesų

METAR: LKLN 282300Z AUTO 00000KT CAVOK 03/M01 Q1017

Laikas: 00:36 (23:36 UTC)


TAF: trūkstamas

Orai ataskaitas ir orų prognozės (METAR, TAF).

turimą stotys yra geltonos ir raudonos taškus žemėlapyje.

Perkelti pele per norėdami pamatyti stoties vardą.

Tada spustelėkite, norėdami matyti oro stebėjimo ir prognozės.

Norėdami pakeisti žemėlapį: spustelėkite ant žalios mygtukų su juodo kryžiaus žemyn,; žalią mygtuką su brūkšneliu, jei norite nutolinti; arba žalių rodyklių gretimoms žemėlapius.


METAR-TAF: